Time;durP1;ratioP1;P1;durP2;ratioP2;P2;SDS_P1;SDS_P2;PMS_P1;PMS_P2;Temp;Humidity;BMP_temperature;BMP_pressure;BME280_temperature;BME280_humidity;BME280_pressure;Samples;Min_cycle;Max_cycle;Signal;HPM_P1;HPM_P2
2021/01/12 00:02:16;;;;;;;1100.93;130.25;;;;;;;;;;3229285;44;20122;-69
2021/01/12 00:04:41;;;;;;;1101.25;129.93;;;;;;;;;;3229348;44;20096;-69
2021/01/12 00:07:06;;;;;;;1099.57;129.77;;;;;;;;;;3229198;44;20111;-70
2021/01/12 00:09:32;;;;;;;1102.22;129.98;;;;;;;;;;3229167;44;20103;-68
2021/01/12 00:11:57;;;;;;;1097.90;129.93;;;;;;;;;;3229468;44;20518;-68
2021/01/12 00:14:31;;;;;;;1096.10;129.95;;;;;;;;;;3229380;44;20115;-69
2021/01/12 00:16:57;;;;;;;1097.75;130.40;;;;;;;;;;3229563;44;20529;-69
2021/01/12 00:19:23;;;;;;;1097.18;130.27;;;;;;;;;;3229826;44;20115;-69
2021/01/12 00:21:48;;;;;;;1090.90;130.02;;;;;;;;;;3229337;44;20107;-70
2021/01/12 00:24:13;;;;;;;1092.28;131.05;;;;;;;;;;3229458;44;20538;-68
2021/01/12 00:26:38;;;;;;;1090.55;131.12;;;;;;;;;;3229284;44;20100;-70
2021/01/12 00:29:04;;;;;;;1081.60;130.87;;;;;;;;;;3229375;44;20439;-69
2021/01/12 00:31:29;;;;;;;1081.65;131.50;;;;;;;;;;3229522;44;20106;-68
2021/01/12 00:33:54;;;;;;;1081.95;131.70;;;;;;;;;;3229142;44;20104;-68
2021/01/12 00:36:19;;;;;;;1085.55;132.37;;;;;;;;;;3228966;44;20111;-68
2021/01/12 00:38:45;;;;;;;1087.43;134.68;;;;;;;;;;3229572;44;20353;-68
2021/01/12 00:41:10;;;;;;;1089.85;134.15;;;;;;;;;;3229557;44;20379;-68
2021/01/12 00:43:35;;;;;;;1089.45;132.37;;;;;;;;;;3230173;44;20100;-68
2021/01/12 00:46:00;;;;;;;1082.70;130.90;;;;;;;;;;3229727;44;20107;-68
2021/01/12 00:48:26;;;;;;;1086.45;130.68;;;;;;;;;;3229954;44;20098;-70
2021/01/12 00:50:51;;;;;;;1085.43;130.10;;;;;;;;;;3229663;44;20105;-68
2021/01/12 00:53:16;;;;;;;1083.72;130.60;;;;;;;;;;3229356;44;20119;-68
2021/01/12 00:55:41;;;;;;;1089.47;131.63;;;;;;;;;;3229453;44;20096;-67
2021/01/12 00:58:07;;;;;;;1086.53;131.27;;;;;;;;;;3221299;44;20110;-68
2021/01/12 01:00:32;;;;;;;1094.68;131.70;;;;;;;;;;3229492;44;20130;-69
2021/01/12 01:02:57;;;;;;;1098.00;132.32;;;;;;;;;;3229668;44;20104;-69
2021/01/12 01:05:23;;;;;;;1097.55;131.77;;;;;;;;;;3229453;44;20454;-69
2021/01/12 01:07:48;;;;;;;1097.30;131.57;;;;;;;;;;3229412;44;20099;-68
2021/01/12 01:10:13;;;;;;;1099.32;130.82;;;;;;;;;;3229150;44;20549;-68
2021/01/12 01:12:39;;;;;;;1106.68;130.18;;;;;;;;;;3228117;44;20143;-67
2021/01/12 01:15:04;;;;;;;1106.78;130.12;;;;;;;;;;3229569;44;20585;-68
2021/01/12 01:17:30;;;;;;;1106.57;129.80;;;;;;;;;;3229469;44;20109;-67
2021/01/12 01:19:55;;;;;;;1107.13;129.40;;;;;;;;;;3229103;44;20157;-68
2021/01/12 01:22:23;;;;;;;1114.75;129.77;;;;;;;;;;3229126;44;20131;-68
2021/01/12 01:24:48;;;;;;;1114.10;129.55;;;;;;;;;;3228981;44;20187;-67
2021/01/12 01:27:14;;;;;;;1112.47;129.15;;;;;;;;;;3228945;44;20541;-67
2021/01/12 01:29:39;;;;;;;1114.35;129.52;;;;;;;;;;3221167;44;20092;-68
2021/01/12 01:32:04;;;;;;;1110.32;129.90;;;;;;;;;;3228939;44;20181;-68
2021/01/12 01:34:30;;;;;;;1111.20;129.75;;;;;;;;;;3229210;44;20470;-67
2021/01/12 01:36:58;;;;;;;1112.00;129.93;;;;;;;;;;3229188;44;20087;-68
2021/01/12 01:39:23;;;;;;;1110.72;129.40;;;;;;;;;;3228751;44;20137;-68
2021/01/12 01:41:48;;;;;;;1115.13;129.68;;;;;;;;;;3229168;44;20107;-67
2021/01/12 01:44:13;;;;;;;1117.97;130.27;;;;;;;;;;3221240;44;20545;-68
2021/01/12 01:46:42;;;;;;;1122.90;129.38;;;;;;;;;;3229222;44;20099;-70
2021/01/12 01:49:07;;;;;;;1128.78;129.25;;;;;;;;;;3228754;44;20286;-67
2021/01/12 01:51:33;;;;;;;1128.60;129.68;;;;;;;;;;3228777;44;20705;-67
2021/01/12 01:53:58;;;;;;;1129.05;129.90;;;;;;;;;;3229082;44;20118;-67
2021/01/12 01:56:26;;;;;;;1122.53;129.25;;;;;;;;;;3228706;44;20103;-67
2021/01/12 01:58:52;;;;;;;1130.80;130.00;;;;;;;;;;3228879;44;20135;-67
2021/01/12 02:01:17;;;;;;;1131.38;130.00;;;;;;;;;;3228817;44;20604;-68
2021/01/12 02:03:50;;;;;;;1128.78;130.15;;;;;;;;;;3228639;44;20107;-67
2021/01/12 02:06:19;;;;;;;1126.55;129.73;;;;;;;;;;3228430;44;20155;-66
2021/01/12 02:08:44;;;;;;;1123.75;129.77;;;;;;;;;;3228259;44;20173;-67
2021/01/12 02:11:12;;;;;;;1124.05;129.87;;;;;;;;;;3228271;44;20573;-66
2021/01/12 02:13:38;;;;;;;1123.95;129.82;;;;;;;;;;3228174;44;20103;-67
2021/01/12 02:16:03;;;;;;;1124.63;129.93;;;;;;;;;;3228276;44;20611;-66
2021/01/12 02:18:32;;;;;;;1125.80;130.18;;;;;;;;;;3228207;44;20126;-68
2021/01/12 02:20:58;;;;;;;1130.25;130.55;;;;;;;;;;3227900;44;20103;-67
2021/01/12 02:23:27;;;;;;;1128.32;130.05;;;;;;;;;;3228165;44;20115;-67
2021/01/12 02:25:53;;;;;;;1126.15;129.85;;;;;;;;;;3228096;44;20501;-67
2021/01/12 02:28:18;;;;;;;1129.43;129.85;;;;;;;;;;3228410;44;20099;-67
2021/01/12 02:30:44;;;;;;;1130.65;130.10;;;;;;;;;;3228194;44;20557;-67
2021/01/12 02:33:09;;;;;;;1125.88;129.82;;;;;;;;;;3228448;44;20092;-66
2021/01/12 02:35:36;;;;;;;1124.28;129.90;;;;;;;;;;3228402;44;20197;-67
2021/01/12 02:38:02;;;;;;;1120.25;129.45;;;;;;;;;;3228419;44;20099;-67
2021/01/12 02:40:27;;;;;;;1108.70;129.12;;;;;;;;;;3228461;44;20100;-67
2021/01/12 02:42:52;;;;;;;1110.15;129.52;;;;;;;;;;3228323;44;20138;-66
2021/01/12 02:45:18;;;;;;;1113.75;129.57;;;;;;;;;;3228497;44;20181;-67
2021/01/12 02:47:43;;;;;;;1114.35;129.32;;;;;;;;;;3228292;44;20115;-67
2021/01/12 02:50:12;;;;;;;1117.13;129.93;;;;;;;;;;3228085;44;20096;-67
2021/01/12 02:52:40;;;;;;;1115.53;129.52;;;;;;;;;;3228068;44;20142;-67
2021/01/12 02:55:06;;;;;;;1115.03;129.43;;;;;;;;;;3228141;44;20163;-67
2021/01/12 02:57:32;;;;;;;1123.50;130.00;;;;;;;;;;3220230;44;20107;-67
2021/01/12 02:59:57;;;;;;;1121.68;130.05;;;;;;;;;;3228443;44;20104;-67
2021/01/12 03:02:22;;;;;;;1117.53;129.57;;;;;;;;;;3228211;44;20225;-66
2021/01/12 03:04:47;;;;;;;1116.53;129.85;;;;;;;;;;3228495;44;20096;-67
2021/01/12 03:07:13;;;;;;;1116.53;129.60;;;;;;;;;;3228090;44;20314;-67
2021/01/12 03:09:38;;;;;;;1120.35;129.82;;;;;;;;;;3228095;44;20155;-66
2021/01/12 03:12:04;;;;;;;1119.78;129.98;;;;;;;;;;3228697;44;20585;-67
2021/01/12 03:14:29;;;;;;;1121.15;130.00;;;;;;;;;;3228473;44;20096;-67
2021/01/12 03:16:54;;;;;;;1129.95;129.52;;;;;;;;;;3228901;44;20553;-66
2021/01/12 03:19:19;;;;;;;1133.32;129.93;;;;;;;;;;3228796;44;20185;-68
2021/01/12 03:21:45;;;;;;;1125.40;129.60;;;;;;;;;;3228476;44;20554;-67
2021/01/12 03:24:10;;;;;;;1124.38;129.85;;;;;;;;;;3228526;44;20098;-68
2021/01/12 03:26:36;;;;;;;1119.13;130.40;;;;;;;;;;3228250;44;20106;-67
2021/01/12 03:29:01;;;;;;;1120.30;131.02;;;;;;;;;;3228532;44;20734;-67
2021/01/12 03:31:26;;;;;;;1119.95;131.45;;;;;;;;;;3228381;44;20104;-67
2021/01/12 03:33:52;;;;;;;1125.20;130.98;;;;;;;;;;3221928;44;20126;-67
2021/01/12 03:36:17;;;;;;;1122.05;131.15;;;;;;;;;;3229681;44;20095;-68
2021/01/12 03:38:42;;;;;;;1119.18;130.75;;;;;;;;;;3229649;44;20339;-68
2021/01/12 03:41:08;;;;;;;1120.43;131.27;;;;;;;;;;3227631;44;20107;-66
2021/01/12 03:43:33;;;;;;;1109.50;131.10;;;;;;;;;;3229728;44;20553;-68
2021/01/12 03:45:58;;;;;;;1109.68;131.40;;;;;;;;;;3227770;44;20130;-68
2021/01/12 03:48:23;;;;;;;1109.90;131.23;;;;;;;;;;3227764;44;20130;-67
2021/01/12 03:50:49;;;;;;;1101.93;131.85;;;;;;;;;;3229667;44;20095;-67
2021/01/12 03:53:15;;;;;;;1104.60;133.05;;;;;;;;;;3229540;44;20575;-67
2021/01/12 03:55:41;;;;;;;1111.68;135.37;;;;;;;;;;3230100;44;20096;-67
2021/01/12 03:58:06;;;;;;;1108.05;135.50;;;;;;;;;;3221717;44;20197;-67
2021/01/12 04:00:31;;;;;;;1105.30;132.30;;;;;;;;;;3220858;44;20116;-68
2021/01/12 04:02:57;;;;;;;1107.43;130.50;;;;;;;;;;3219314;44;20123;-67
2021/01/12 04:05:22;;;;;;;1108.40;130.65;;;;;;;;;;3227102;44;20122;-68
2021/01/12 04:07:47;;;;;;;1108.55;130.43;;;;;;;;;;3227626;44;20135;-67
2021/01/12 04:10:12;;;;;;;1104.32;130.50;;;;;;;;;;3227738;44;20516;-67
2021/01/12 04:12:38;;;;;;;1106.43;130.45;;;;;;;;;;3227655;44;20115;-67
2021/01/12 04:15:04;;;;;;;1108.65;130.90;;;;;;;;;;3227434;44;20490;-67
2021/01/12 04:17:30;;;;;;;1115.00;130.77;;;;;;;;;;3229298;44;20092;-67
2021/01/12 04:19:55;;;;;;;1115.82;130.60;;;;;;;;;;3229301;44;20104;-67
2021/01/12 04:22:20;;;;;;;1108.50;130.32;;;;;;;;;;3229374;44;20096;-67
2021/01/12 04:24:46;;;;;;;1112.53;130.18;;;;;;;;;;3230064;44;20181;-68
2021/01/12 04:27:11;;;;;;;1112.32;130.07;;;;;;;;;;3230607;44;20227;-68
2021/01/12 04:29:36;;;;;;;1115.20;130.37;;;;;;;;;;3229976;44;20549;-67
2021/01/12 04:32:01;;;;;;;1110.47;129.82;;;;;;;;;;3231491;44;20118;-69
2021/01/12 04:34:27;;;;;;;1114.22;130.05;;;;;;;;;;3235968;44;20151;-71
2021/01/12 04:36:52;;;;;;;1112.28;130.93;;;;;;;;;;3236699;44;20170;-69
2021/01/12 04:39:17;;;;;;;1113.60;131.18;;;;;;;;;;3238436;44;20162;-70
2021/01/12 04:41:42;;;;;;;1114.93;131.52;;;;;;;;;;3238349;44;20219;-68
2021/01/12 04:44:08;;;;;;;1114.07;130.93;;;;;;;;;;3233835;44;20625;-69
2021/01/12 04:46:33;;;;;;;1113.78;130.85;;;;;;;;;;3235587;44;20115;-68
2021/01/12 04:48:59;;;;;;;1119.28;133.18;;;;;;;;;;3238224;44;20477;-69
2021/01/12 04:51:25;;;;;;;1120.68;130.40;;;;;;;;;;3237451;44;20111;-70
2021/01/12 04:53:50;;;;;;;1121.47;130.02;;;;;;;;;;3237672;44;20470;-70
2021/01/12 04:56:18;;;;;;;1124.63;129.07;;;;;;;;;;3237871;44;20096;-69
2021/01/12 04:58:45;;;;;;;1133.50;129.32;;;;;;;;;;3238783;44;20509;-69
2021/01/12 05:01:11;;;;;;;1139.93;129.65;;;;;;;;;;3233638;44;20821;-70
2021/01/12 05:03:38;;;;;;;1139.07;129.40;;;;;;;;;;3237045;44;20107;-69
2021/01/12 05:06:04;;;;;;;1140.95;128.95;;;;;;;;;;3238015;44;20741;-71
2021/01/12 05:08:29;;;;;;;1139.50;129.02;;;;;;;;;;3240580;44;20163;-70
2021/01/12 05:10:57;;;;;;;1134.25;129.48;;;;;;;;;;3240754;44;20122;-69
2021/01/12 05:13:24;;;;;;;1134.70;129.70;;;;;;;;;;3241803;44;20170;-70
2021/01/12 05:15:49;;;;;;;1141.60;129.65;;;;;;;;;;3228445;44;20095;-70
2021/01/12 05:18:22;;;;;;;1147.05;129.40;;;;;;;;;;3353203;27;20639;-69
2021/01/12 05:20:55;;;;;;;1147.55;129.07;;;;;;;;;;3270708;27;20508;-73
2021/01/12 05:23:24;;;;;;;1153.97;128.98;;;;;;;;;;3253713;44;20098;-70
2021/01/12 05:25:51;;;;;;;1149.30;129.00;;;;;;;;;;3249951;44;20154;-72
2021/01/12 05:30:51;;;;;;;1146.97;129.57;;;;;;;;;;3237397;37;20114;-72
2021/01/12 05:36:04;;;;;;;1145.25;131.02;;;;;;;;;;798613;27;20408;-75
2021/01/12 05:41:18;;;;;;;1145.38;129.23;;;;;;;;;;3374387;26;21001;-77
2021/01/12 05:46:24;;;;;;;1150.28;130.15;;;;;;;;;;3260250;40;20212;-70
2021/01/12 05:48:50;;;;;;;1147.22;129.63;;;;;;;;;;3260793;44;20114;-68
2021/01/12 05:51:16;;;;;;;1145.78;129.57;;;;;;;;;;3264000;44;20090;-71
2021/01/12 05:53:48;;;;;;;1143.22;129.52;;;;;;;;;;3266261;44;20657;-70
2021/01/12 05:56:23;;;;;;;1141.72;130.48;;;;;;;;;;3266917;44;20149;-73
2021/01/12 05:58:50;;;;;;;1144.88;135.30;;;;;;;;;;3265262;44;20102;-71
2021/01/12 06:01:24;;;;;;;1135.18;135.93;;;;;;;;;;3266998;44;20066;-72
2021/01/12 06:03:53;;;;;;;1130.90;131.40;;;;;;;;;;3294407;26;20254;-72
2021/01/12 06:06:18;;;;;;;1135.75;131.75;;;;;;;;;;3255163;40;20152;-73
2021/01/12 06:08:48;;;;;;;1136.00;131.43;;;;;;;;;;3266375;44;20094;-70
2021/01/12 06:11:15;;;;;;;1133.20;131.07;;;;;;;;;;3265346;44;20094;-72
2021/01/12 06:13:45;;;;;;;1129.18;132.05;;;;;;;;;;3266586;44;20071;-72
2021/01/12 06:16:17;;;;;;;1136.35;134.10;;;;;;;;;;3266524;44;20740;-71
2021/01/12 06:18:48;;;;;;;1140.20;135.25;;;;;;;;;;3266606;44;20125;-72
2021/01/12 06:21:16;;;;;;;1139.70;132.40;;;;;;;;;;3266506;44;20121;-72
2021/01/12 06:23:56;;;;;;;1139.55;132.12;;;;;;;;;;3266429;44;20613;-73
2021/01/12 06:26:21;;;;;;;1137.32;131.73;;;;;;;;;;3266141;44;20642;-73
2021/01/12 06:28:47;;;;;;;1140.13;132.05;;;;;;;;;;3266258;44;20101;-71
2021/01/12 06:33:54;;;;;;;1145.32;131.25;;;;;;;;;;3248818;37;20121;-72
2021/01/12 06:36:20;;;;;;;1144.75;130.75;;;;;;;;;;3249520;44;20071;-72
2021/01/12 06:38:47;;;;;;;1143.38;131.98;;;;;;;;;;3249727;44;20110;-70
2021/01/12 06:41:17;;;;;;;1135.25;130.63;;;;;;;;;;3249255;44;20139;-70
2021/01/12 06:43:47;;;;;;;1138.97;131.73;;;;;;;;;;3245344;44;20596;-69
2021/01/12 06:46:13;;;;;;;1137.72;131.63;;;;;;;;;;3245565;44;20113;-70
2021/01/12 06:48:41;;;;;;;1137.50;132.77;;;;;;;;;;3248309;44;20146;-71
2021/01/12 06:51:08;;;;;;;1134.47;131.37;;;;;;;;;;3245056;44;20159;-71
2021/01/12 06:53:33;;;;;;;1136.80;131.75;;;;;;;;;;3248199;44;20099;-72
2021/01/12 06:56:05;;;;;;;1136.55;133.43;;;;;;;;;;3249998;44;20888;-74
2021/01/12 06:58:30;;;;;;;1136.18;133.52;;;;;;;;;;3248867;44;20063;-71
2021/01/12 07:01:00;;;;;;;1138.75;133.75;;;;;;;;;;3253018;44;20103;-73
2021/01/12 07:03:32;;;;;;;1134.30;131.30;;;;;;;;;;3248310;44;20118;-71
2021/01/12 07:05:57;;;;;;;;;;;;;;;;;;3252834;44;20095;-72
2021/01/12 07:08:25;;;;;;;1139.32;129.85;;;;;;;;;;3249558;44;19982;-70
2021/01/12 07:10:50;;;;;;;1140.93;130.70;;;;;;;;;;3249473;44;20104;-71
2021/01/12 07:13:15;;;;;;;1138.60;130.15;;;;;;;;;;3249206;44;20115;-71
2021/01/12 07:15:48;;;;;;;1143.72;131.98;;;;;;;;;;3250760;44;20091;-71
2021/01/12 07:18:14;;;;;;;1142.35;133.12;;;;;;;;;;3249469;44;20099;-72
2021/01/12 07:20:40;;;;;;;1137.50;132.63;;;;;;;;;;3249734;44;20092;-72
2021/01/12 07:23:06;;;;;;;1138.18;132.20;;;;;;;;;;3250409;44;20103;-72
2021/01/12 07:25:35;;;;;;;1131.97;132.30;;;;;;;;;;3249321;44;20096;-71
2021/01/12 07:28:00;;;;;;;1131.15;132.95;;;;;;;;;;3248820;44;20537;-71
2021/01/12 07:30:26;;;;;;;1127.95;134.45;;;;;;;;;;3249148;44;20118;-69
2021/01/12 07:32:56;;;;;;;1123.93;133.45;;;;;;;;;;3248913;44;20091;-71
2021/01/12 07:35:22;;;;;;;1125.70;135.40;;;;;;;;;;3249672;44;20115;-70
2021/01/12 07:37:47;;;;;;;1124.70;136.02;;;;;;;;;;3249975;44;20099;-69
2021/01/12 07:40:13;;;;;;;1132.25;137.07;;;;;;;;;;3250152;44;20114;-71
2021/01/12 07:43:04;;;;;;;1129.18;137.77;;;;;;;;;;3250287;44;20442;-71
2021/01/12 07:48:02;;;;;;;1128.75;134.68;;;;;;;;;;3239977;37;20122;-71
2021/01/12 07:50:29;;;;;;;1130.68;135.52;;;;;;;;;;3246643;44;20525;-71
2021/01/12 07:52:55;;;;;;;1131.32;133.25;;;;;;;;;;3250110;44;20657;-69
2021/01/12 07:55:21;;;;;;;1128.82;133.82;;;;;;;;;;3250398;44;20103;-71
2021/01/12 07:57:49;;;;;;;1121.57;132.10;;;;;;;;;;3250001;44;20476;-71
2021/01/12 08:00:15;;;;;;;1116.32;132.75;;;;;;;;;;3249528;44;20095;-71
2021/01/12 08:02:42;;;;;;;1121.25;136.37;;;;;;;;;;3242460;44;20115;-70
2021/01/12 08:05:09;;;;;;;1118.53;137.10;;;;;;;;;;3250383;44;20098;-71
2021/01/12 08:07:35;;;;;;;1114.78;136.70;;;;;;;;;;3250601;44;20091;-71
2021/01/12 08:12:28;;;;;;;1113.93;141.20;;;;;;;;;;3252716;44;20146;-72
2021/01/12 08:14:53;;;;;;;1117.07;143.87;;;;;;;;;;3257014;44;20146;-70
2021/01/12 08:17:20;;;;;;;1127.57;155.18;;;;;;;;;;3258430;44;20118;-71
2021/01/12 08:22:21;;;;;;;1107.80;138.40;;;;;;;;;;3248303;37;20119;-71
2021/01/12 08:24:47;;;;;;;1106.18;133.48;;;;;;;;;;3248548;44;20117;-70
2021/01/12 08:27:13;;;;;;;1107.97;135.90;;;;;;;;;;3250592;44;20151;-71
2021/01/12 08:29:39;;;;;;;1107.05;134.52;;;;;;;;;;3250512;44;20624;-69
2021/01/12 08:32:08;;;;;;;1117.03;135.23;;;;;;;;;;3243434;44;20186;-71
2021/01/12 08:34:40;;;;;;;1127.35;134.87;;;;;;;;;;3276668;27;20078;-71
2021/01/12 08:37:05;;;;;;;1130.47;133.57;;;;;;;;;;3248693;40;20239;-72
2021/01/12 08:39:31;;;;;;;1130.78;132.07;;;;;;;;;;3258061;44;20571;-71
2021/01/12 08:41:57;;;;;;;1131.03;131.30;;;;;;;;;;3257864;44;20107;-70
2021/01/12 08:44:24;;;;;;;1131.28;130.12;;;;;;;;;;3257608;44;20643;-72
2021/01/12 08:46:50;;;;;;;1134.50;130.25;;;;;;;;;;3257104;44;20087;-71
2021/01/12 08:49:15;;;;;;;1128.63;130.30;;;;;;;;;;3256714;44;20572;-70
2021/01/12 08:51:41;;;;;;;1131.15;131.80;;;;;;;;;;3256094;44;20498;-71
2021/01/12 08:54:07;;;;;;;1139.75;132.57;;;;;;;;;;3255951;44;20438;-71
2021/01/12 08:56:32;;;;;;;1133.07;133.05;;;;;;;;;;3255935;44;20102;-71
2021/01/12 08:59:04;;;;;;;1129.97;134.20;;;;;;;;;;3255860;44;20149;-69
2021/01/12 09:01:30;;;;;;;1130.53;133.45;;;;;;;;;;3256236;44;20087;-70
2021/01/12 09:04:03;;;;;;;1129.57;133.87;;;;;;;;;;3248013;44;20531;-71
2021/01/12 09:06:28;;;;;;;1130.47;134.40;;;;;;;;;;3255239;44;20100;-71
2021/01/12 09:08:53;;;;;;;1134.25;139.75;;;;;;;;;;3249194;44;20123;-70
2021/01/12 09:11:19;;;;;;;1131.97;137.77;;;;;;;;;;3257591;44;20122;-70
2021/01/12 09:13:45;;;;;;;1128.72;134.20;;;;;;;;;;3257545;44;20109;-70
2021/01/12 09:16:11;;;;;;;1129.18;137.35;;;;;;;;;;3258077;44;20090;-71
2021/01/12 09:18:36;;;;;;;1132.35;137.68;;;;;;;;;;3258431;44;20107;-73
2021/01/12 09:21:06;;;;;;;1129.55;138.18;;;;;;;;;;3258477;44;20151;-71
2021/01/12 09:23:31;;;;;;;1130.32;138.65;;;;;;;;;;3258626;44;20095;-71
2021/01/12 09:26:06;;;;;;;1130.63;138.15;;;;;;;;;;3257785;44;20130;-71
2021/01/12 09:28:39;;;;;;;1130.38;138.25;;;;;;;;;;3258093;44;20135;-72
2021/01/12 09:31:04;;;;;;;1126.65;136.98;;;;;;;;;;3249432;44;20119;-71
2021/01/12 09:33:29;;;;;;;1130.03;137.37;;;;;;;;;;3255807;44;20107;-71
2021/01/12 09:54:21;;;;;;;1138.97;134.80;;;;;;;;;;3244733;44;20157;-72
2021/01/12 09:56:46;;;;;;;1132.05;131.87;;;;;;;;;;3251651;44;20094;-71
2021/01/12 09:59:11;;;;;;;1138.50;132.70;;;;;;;;;;3256967;44;20788;-71
2021/01/12 10:01:37;;;;;;;1142.03;132.80;;;;;;;;;;3256741;44;20111;-71
2021/01/12 10:04:02;;;;;;;1145.13;132.48;;;;;;;;;;3256441;44;20146;-71
2021/01/12 10:08:55;;;;;;;1146.00;130.93;;;;;;;;;;3257020;37;20817;-72
2021/01/12 10:11:23;;;;;;;1149.75;130.57;;;;;;;;;;3258700;44;20118;-72
2021/01/12 10:13:56;;;;;;;1152.65;132.55;;;;;;;;;;3311655;27;20166;-77
2021/01/12 10:16:24;;;;;;;1150.63;133.00;;;;;;;;;;3247595;37;20094;-70
2021/01/12 10:18:50;;;;;;;1153.60;133.27;;;;;;;;;;3250292;44;20107;-69
2021/01/12 10:28:38;;;;;;;1145.90;134.23;;;;;;;;;;3381665;27;20094;-75
2021/01/12 10:31:10;;;;;;;1142.93;132.60;;;;;;;;;;3303485;27;20111;-72
2021/01/12 10:36:18;;;;;;;1160.07;132.75;;;;;;;;;;3244308;37;20189;-72
2021/01/12 10:41:25;;;;;;;1169.60;131.98;;;;;;;;;;3257997;27;20159;31
2021/01/12 10:46:31;;;;;;;1174.57;131.52;;;;;;;;;;3343807;27;20121;-73
2021/01/12 10:49:00;;;;;;;1178.75;130.82;;;;;;;;;;3300569;27;20130;-72
2021/01/12 10:51:47;;;;;;;1182.55;133.82;;;;;;;;;;3324115;27;20667;-75
2021/01/12 10:54:16;;;;;;;1182.93;132.35;;;;;;;;;;875853;27;20350;-74
2021/01/12 10:56:48;;;;;;;1179.97;133.25;;;;;;;;;;3361260;27;20063;-76
2021/01/12 11:07:23;;;;;;;1142.90;128.57;;;;;;;;;;861722;27;21540;-73
2021/01/12 11:09:55;;;;;;;1170.60;132.98;;;;;;;;;;3303210;27;20182;-75
2021/01/12 11:15:08;;;;;;;1170.15;133.35;;;;;;;;;;797822;27;22250;-74
2021/01/12 11:20:08;;;;;;;1164.95;133.43;;;;;;;;;;3254194;37;20079;-74
2021/01/12 11:22:40;;;;;;;1164.18;135.07;;;;;;;;;;3389042;27;20524;-73
2021/01/12 11:25:07;;;;;;;1167.95;136.98;;;;;;;;;;3299221;27;21055;-74
2021/01/12 11:27:35;;;;;;;1165.80;137.93;;;;;;;;;;3331416;27;20074;-74
2021/01/12 11:30:05;;;;;;;1156.47;136.70;;;;;;;;;;3370141;27;20088;-74
2021/01/12 11:35:14;;;;;;;1159.30;139.12;;;;;;;;;;3307535;27;20138;-75
2021/01/12 11:37:48;;;;;;;1149.78;137.45;;;;;;;;;;3307624;27;20129;-72
2021/01/12 11:40:20;;;;;;;1144.43;135.52;;;;;;;;;;3327587;27;20110;-74
2021/01/12 11:47:47;;;;;;;1142.55;143.13;;;;;;;;;;3272334;27;20068;-74
2021/01/12 11:50:20;;;;;;;1145.15;142.15;;;;;;;;;;3275705;27;21117;-73
2021/01/12 11:52:47;;;;;;;1141.93;138.80;;;;;;;;;;3241768;37;20897;-73
2021/01/12 11:55:18;;;;;;;1149.63;138.70;;;;;;;;;;3295174;27;20437;-74
2021/01/12 12:00:32;;;;;;;1126.95;136.30;;;;;;;;;;3360106;27;20998;-74
2021/01/12 12:03:04;;;;;;;1131.32;135.18;;;;;;;;;;3298242;27;20111;-71
2021/01/12 12:05:37;;;;;;;1128.35;135.73;;;;;;;;;;3341647;27;20796;-73
2021/01/12 12:08:09;;;;;;;1124.25;134.68;;;;;;;;;;3301373;27;20094;-74
2021/01/12 12:10:36;;;;;;;1119.55;134.73;;;;;;;;;;3319613;26;20126;-73
2021/01/12 12:13:07;;;;;;;1120.68;139.23;;;;;;;;;;3336971;27;20083;-75
2021/01/12 12:15:32;;;;;;;1127.53;141.93;;;;;;;;;;3248075;37;20218;-72
2021/01/12 12:18:01;;;;;;;1126.57;135.27;;;;;;;;;;3285181;27;20106;-72
2021/01/12 12:20:34;;;;;;;1126.70;133.65;;;;;;;;;;3284272;27;20090;-74
2021/01/12 12:23:06;;;;;;;1128.68;136.18;;;;;;;;;;3316240;27;20118;-73
2021/01/12 12:25:35;;;;;;;1146.32;141.55;;;;;;;;;;859886;27;20436;-75
2021/01/12 12:33:26;;;;;;;1185.20;132.73;;;;;;;;;;3405110;27;20186;-74
2021/01/12 12:35:58;;;;;;;1205.80;132.05;;;;;;;;;;3297451;27;20665;-73
2021/01/12 12:38:25;;;;;;;1202.78;133.77;;;;;;;;;;3313744;27;20273;31
2021/01/12 12:58:51;;;;;;;1185.88;134.00;;;;;;;;;;3419383;27;20247;-75
2021/01/12 13:01:20;;;;;;;1181.97;133.80;;;;;;;;;;3409446;27;20090;-75
2021/01/12 13:11:56;;;;;;;1180.17;143.47;;;;;;;;;;797478;27;21846;-76
2021/01/12 13:14:24;;;;;;;1177.13;138.62;;;;;;;;;;3381961;27;20075;-74
2021/01/12 13:16:57;;;;;;;1163.30;133.65;;;;;;;;;;3391059;27;20571;-74
2021/01/12 13:19:30;;;;;;;1157.32;134.02;;;;;;;;;;3355849;27;20975;-74
2021/01/12 13:22:02;;;;;;;1161.15;139.57;;;;;;;;;;3310087;27;20134;-74
2021/01/12 13:24:34;;;;;;;1167.32;140.85;;;;;;;;;;3317334;27;20095;-72
2021/01/12 13:27:06;;;;;;;1164.28;145.18;;;;;;;;;;3342131;27;20156;-73
2021/01/12 13:29:32;;;;;;;1164.53;141.93;;;;;;;;;;3268338;27;20091;31
2021/01/12 13:32:08;;;;;;;1166.57;134.77;;;;;;;;;;988583;27;20377;-74
2021/01/12 13:34:34;;;;;;;1166.63;134.00;;;;;;;;;;3322382;27;20125;-73
2021/01/12 13:37:06;;;;;;;1177.18;137.25;;;;;;;;;;3303638;27;20930;-72
2021/01/12 13:39:35;;;;;;;1171.28;133.35;;;;;;;;;;3267620;27;20977;-74
2021/01/12 13:42:03;;;;;;;1175.60;136.25;;;;;;;;;;3251535;37;20261;-73
2021/01/12 13:44:32;;;;;;;1176.25;132.95;;;;;;;;;;3308223;27;20079;-74
2021/01/12 13:47:05;;;;;;;1180.55;133.63;;;;;;;;;;3284506;27;20118;-74
2021/01/12 13:54:54;;;;;;;1156.27;128.30;;;;;;;;;;3375736;27;20226;-74
2021/01/12 14:05:25;;;;;;;1184.03;136.93;;;;;;;;;;3281219;27;20126;-76
2021/01/12 14:10:31;;;;;;;1199.93;139.85;;;;;;;;;;3304808;27;20674;31
2021/01/12 14:12:58;;;;;;;1201.82;136.10;;;;;;;;;;3358923;27;20114;-73
2021/01/12 14:17:52;;;;;;;1213.53;134.65;;;;;;;;;;3249946;36;20115;-72
2021/01/12 14:30:15;;;;;;;1219.85;133.98;;;;;;;;;;3388676;27;20146;-74
2021/01/12 14:32:47;;;;;;;1225.32;134.40;;;;;;;;;;1055606;27;21778;-73
2021/01/12 14:37:59;;;;;;;1203.75;130.23;;;;;;;;;;3234141;44;20159;-72
2021/01/12 14:40:32;;;;;;;1239.63;137.43;;;;;;;;;;3267060;27;20134;-72
2021/01/12 14:43:01;;;;;;;1258.45;134.68;;;;;;;;;;3301758;27;20123;-74
2021/01/12 14:45:28;;;;;;;1263.15;135.60;;;;;;;;;;3283144;27;20134;-73
2021/01/12 14:47:57;;;;;;;1289.75;137.25;;;;;;;;;;3308109;27;20094;-73
2021/01/12 14:58:19;;;;;;;1286.43;137.07;;;;;;;;;;3248798;44;20177;-72
2021/01/12 15:00:54;;;;;;;1285.70;137.65;;;;;;;;;;3282957;27;20106;-73
2021/01/12 15:03:21;;;;;;;1277.20;137.68;;;;;;;;;;3249057;37;20634;-72
2021/01/12 15:08:26;;;;;;;1267.28;137.65;;;;;;;;;;3280708;27;20178;-73
2021/01/12 15:10:59;;;;;;;1268.25;137.90;;;;;;;;;;3275771;27;20074;-73
2021/01/12 15:13:31;;;;;;;1267.93;137.88;;;;;;;;;;3351255;27;20118;-73
2021/01/12 15:15:59;;;;;;;1272.13;138.35;;;;;;;;;;3331549;27;20166;-73
2021/01/12 15:21:08;;;;;;;1269.73;137.50;;;;;;;;;;3229516;37;20717;-71
2021/01/12 15:23:38;;;;;;;1268.30;136.82;;;;;;;;;;3258177;27;20091;-73
2021/01/12 15:26:07;;;;;;;1274.82;137.10;;;;;;;;;;3325161;27;20095;-72
2021/01/12 15:28:33;;;;;;;1277.80;137.32;;;;;;;;;;3261965;37;20158;-72
2021/01/12 15:33:26;;;;;;;1280.93;139.05;;;;;;;;;;3251896;37;20107;-72
2021/01/12 15:38:27;;;;;;;1279.65;140.82;;;;;;;;;;3249697;37;20686;-72
2021/01/12 15:40:53;;;;;;;1278.18;137.20;;;;;;;;;;3248989;44;20099;-70
2021/01/12 15:43:19;;;;;;;1279.07;136.43;;;;;;;;;;3019604;44;9999829;-72
2021/01/12 15:45:45;;;;;;;1288.50;137.85;;;;;;;;;;3248208;44;20675;-71
2021/01/12 15:48:16;;;;;;;1295.22;137.88;;;;;;;;;;3335012;27;20098;-72
2021/01/12 15:50:47;;;;;;;1301.05;137.55;;;;;;;;;;3286271;27;20915;-75
2021/01/12 15:58:25;;;;;;;1318.07;138.05;;;;;;;;;;3279989;27;20126;-70
2021/01/12 16:03:33;;;;;;;1317.13;138.30;;;;;;;;;;3240019;44;20186;-73
2021/01/12 16:06:05;;;;;;;1311.05;139.95;;;;;;;;;;3275948;27;20137;-73
2021/01/12 16:08:36;;;;;;;1313.20;139.52;;;;;;;;;;3324222;27;21093;-73
2021/01/12 16:11:08;;;;;;;1313.88;142.32;;;;;;;;;;3237847;37;20083;-70
2021/01/12 16:13:35;;;;;;;1306.30;139.65;;;;;;;;;;3236421;44;20103;-70
2021/01/12 16:18:29;;;;;;;1308.22;140.32;;;;;;;;;;3253402;44;20172;-74
2021/01/12 16:20:54;;;;;;;1306.28;140.23;;;;;;;;;;3255857;44;20107;-70
2021/01/12 16:23:20;;;;;;;1314.63;140.45;;;;;;;;;;3254531;44;20145;-70
2021/01/12 16:25:48;;;;;;;1310.10;139.75;;;;;;;;;;3253636;44;20138;-70
2021/01/12 16:28:18;;;;;;;1311.82;139.80;;;;;;;;;;3283849;27;20623;-70
2021/01/12 16:30:51;;;;;;;1317.25;140.05;;;;;;;;;;3334955;27;21339;-71
2021/01/12 16:35:56;;;;;;;1317.38;139.35;;;;;;;;;;3252164;37;20898;-72
2021/01/12 16:38:26;;;;;;;1306.75;140.02;;;;;;;;;;3255692;44;20506;-72